sensor_id;sensor_type;location;lat;lon;timestamp;temperature;humidity
10986;DHT22;5546;48.714;8.738;2023-09-19T00:01:07;19.50;99.90
10986;DHT22;5546;48.714;8.738;2023-09-19T00:03:34;19.70;99.90
10986;DHT22;5546;48.714;8.738;2023-09-19T00:06:01;19.80;99.90
10986;DHT22;5546;48.714;8.738;2023-09-19T00:08:26;20.00;99.90
10986;DHT22;5546;48.714;8.738;2023-09-19T00:10:54;20.00;99.90
10986;DHT22;5546;48.714;8.738;2023-09-19T00:13:20;20.00;99.90
10986;DHT22;5546;48.714;8.738;2023-09-19T00:15:48;19.90;99.90
10986;DHT22;5546;48.714;8.738;2023-09-19T00:18:17;19.90;99.90
10986;DHT22;5546;48.714;8.738;2023-09-19T00:20:44;19.80;99.90
10986;DHT22;5546;48.714;8.738;2023-09-19T00:23:13;20.00;99.90
10986;DHT22;5546;48.714;8.738;2023-09-19T00:25:39;20.10;99.90
10986;DHT22;5546;48.714;8.738;2023-09-19T00:28:05;19.80;99.90
10986;DHT22;5546;48.714;8.738;2023-09-19T00:30:33;19.70;99.90
10986;DHT22;5546;48.714;8.738;2023-09-19T00:35:26;19.90;99.90
10986;DHT22;5546;48.714;8.738;2023-09-19T00:37:52;19.90;99.90
10986;DHT22;5546;48.714;8.738;2023-09-19T00:40:18;20.00;99.90
10986;DHT22;5546;48.714;8.738;2023-09-19T00:42:45;20.10;99.90
10986;DHT22;5546;48.714;8.738;2023-09-19T00:45:12;20.00;99.90
10986;DHT22;5546;48.714;8.738;2023-09-19T00:47:43;20.00;99.90
10986;DHT22;5546;48.714;8.738;2023-09-19T00:50:10;19.70;99.90
10986;DHT22;5546;48.714;8.738;2023-09-19T00:52:39;19.50;99.90
10986;DHT22;5546;48.714;8.738;2023-09-19T00:55:06;19.80;99.90
10986;DHT22;5546;48.714;8.738;2023-09-19T00:57:33;19.70;99.90
10986;DHT22;5546;48.714;8.738;2023-09-19T01:00:00;19.60;99.90
10986;DHT22;5546;48.714;8.738;2023-09-19T01:02:26;19.40;99.90
10986;DHT22;5546;48.714;8.738;2023-09-19T01:04:54;19.20;99.90
10986;DHT22;5546;48.714;8.738;2023-09-19T01:07:20;19.20;99.90
10986;DHT22;5546;48.714;8.738;2023-09-19T01:09:48;19.20;99.90
10986;DHT22;5546;48.714;8.738;2023-09-19T01:12:16;19.40;99.90
10986;DHT22;5546;48.714;8.738;2023-09-19T01:17:27;19.30;99.90
10986;DHT22;5546;48.714;8.738;2023-09-19T01:20:22;19.50;99.90
10986;DHT22;5546;48.714;8.738;2023-09-19T01:23:20;19.60;99.90
10986;DHT22;5546;48.714;8.738;2023-09-19T01:28:31;18.80;99.90
10986;DHT22;5546;48.714;8.738;2023-09-19T01:31:02;18.60;99.90
10986;DHT22;5546;48.714;8.738;2023-09-19T01:33:47;18.80;99.90
10986;DHT22;5546;48.714;8.738;2023-09-19T01:36:16;18.90;99.90
10986;DHT22;5546;48.714;8.738;2023-09-19T01:38:42;18.60;99.90
10986;DHT22;5546;48.714;8.738;2023-09-19T01:41:11;18.40;99.90
10986;DHT22;5546;48.714;8.738;2023-09-19T01:43:42;18.70;99.90
10986;DHT22;5546;48.714;8.738;2023-09-19T01:46:15;19.00;99.90
10986;DHT22;5546;48.714;8.738;2023-09-19T01:49:04;19.20;99.90
10986;DHT22;5546;48.714;8.738;2023-09-19T01:54:30;19.10;99.90
10986;DHT22;5546;48.714;8.738;2023-09-19T01:57:07;18.90;99.90
10986;DHT22;5546;48.714;8.738;2023-09-19T01:59:41;18.30;99.90
10986;DHT22;5546;48.714;8.738;2023-09-19T02:02:08;18.40;99.90
10986;DHT22;5546;48.714;8.738;2023-09-19T02:04:35;18.40;99.90
10986;DHT22;5546;48.714;8.738;2023-09-19T02:07:00;18.20;99.90
10986;DHT22;5546;48.714;8.738;2023-09-19T02:09:26;18.10;99.90
10986;DHT22;5546;48.714;8.738;2023-09-19T02:11:52;17.70;99.90
10986;DHT22;5546;48.714;8.738;2023-09-19T02:14:18;17.80;99.90
10986;DHT22;5546;48.714;8.738;2023-09-19T02:16:45;17.70;99.90
10986;DHT22;5546;48.714;8.738;2023-09-19T02:19:11;17.60;99.90
10986;DHT22;5546;48.714;8.738;2023-09-19T02:21:36;18.00;99.90
10986;DHT22;5546;48.714;8.738;2023-09-19T02:24:02;18.00;99.90
10986;DHT22;5546;48.714;8.738;2023-09-19T02:26:28;17.70;99.90
10986;DHT22;5546;48.714;8.738;2023-09-19T02:28:54;17.60;99.90
10986;DHT22;5546;48.714;8.738;2023-09-19T02:31:19;17.60;99.90
10986;DHT22;5546;48.714;8.738;2023-09-19T02:33:45;17.70;99.90
10986;DHT22;5546;48.714;8.738;2023-09-19T02:36:11;17.50;99.90
10986;DHT22;5546;48.714;8.738;2023-09-19T02:38:37;17.60;99.90
10986;DHT22;5546;48.714;8.738;2023-09-19T02:41:02;17.60;99.90
10986;DHT22;5546;48.714;8.738;2023-09-19T02:43:28;17.60;99.90
10986;DHT22;5546;48.714;8.738;2023-09-19T02:45:54;17.70;99.90
10986;DHT22;5546;48.714;8.738;2023-09-19T02:48:19;18.00;99.90
10986;DHT22;5546;48.714;8.738;2023-09-19T02:50:46;18.00;99.90
10986;DHT22;5546;48.714;8.738;2023-09-19T02:53:11;18.20;99.90
10986;DHT22;5546;48.714;8.738;2023-09-19T02:55:38;18.10;99.90
10986;DHT22;5546;48.714;8.738;2023-09-19T02:58:06;18.00;99.90
10986;DHT22;5546;48.714;8.738;2023-09-19T03:00:33;17.90;99.90
10986;DHT22;5546;48.714;8.738;2023-09-19T03:03:02;17.90;99.90
10986;DHT22;5546;48.714;8.738;2023-09-19T03:05:29;18.00;99.90
10986;DHT22;5546;48.714;8.738;2023-09-19T03:07:58;18.40;99.90
10986;DHT22;5546;48.714;8.738;2023-09-19T03:10:26;18.60;99.90
10986;DHT22;5546;48.714;8.738;2023-09-19T03:12:53;18.60;99.90
10986;DHT22;5546;48.714;8.738;2023-09-19T03:17:46;18.30;99.90
10986;DHT22;5546;48.714;8.738;2023-09-19T03:20:13;18.20;99.90
10986;DHT22;5546;48.714;8.738;2023-09-19T03:22:43;17.70;99.90
10986;DHT22;5546;48.714;8.738;2023-09-19T03:25:08;18.00;99.90
10986;DHT22;5546;48.714;8.738;2023-09-19T03:27:38;18.30;99.90
10986;DHT22;5546;48.714;8.738;2023-09-19T03:30:05;18.90;99.90
10986;DHT22;5546;48.714;8.738;2023-09-19T03:32:37;19.00;99.90
10986;DHT22;5546;48.714;8.738;2023-09-19T03:35:03;19.00;99.90
10986;DHT22;5546;48.714;8.738;2023-09-19T03:37:31;18.10;99.90
10986;DHT22;5546;48.714;8.738;2023-09-19T03:39:57;18.10;99.90
10986;DHT22;5546;48.714;8.738;2023-09-19T03:42:23;18.20;99.90
10986;DHT22;5546;48.714;8.738;2023-09-19T03:44:51;18.20;99.90
10986;DHT22;5546;48.714;8.738;2023-09-19T03:47:18;18.10;99.90
10986;DHT22;5546;48.714;8.738;2023-09-19T03:52:10;17.90;99.90
10986;DHT22;5546;48.714;8.738;2023-09-19T03:54:35;18.00;99.90
10986;DHT22;5546;48.714;8.738;2023-09-19T03:57:01;18.10;99.90
10986;DHT22;5546;48.714;8.738;2023-09-19T03:59:28;18.00;99.90
10986;DHT22;5546;48.714;8.738;2023-09-19T04:01:54;18.00;99.90
10986;DHT22;5546;48.714;8.738;2023-09-19T04:04:22;18.10;99.90
10986;DHT22;5546;48.714;8.738;2023-09-19T04:06:50;17.90;99.90
10986;DHT22;5546;48.714;8.738;2023-09-19T04:09:16;17.90;99.90
10986;DHT22;5546;48.714;8.738;2023-09-19T04:11:41;18.20;99.90
10986;DHT22;5546;48.714;8.738;2023-09-19T04:14:07;18.20;99.90
10986;DHT22;5546;48.714;8.738;2023-09-19T04:16:32;18.30;99.90
10986;DHT22;5546;48.714;8.738;2023-09-19T04:18:58;18.50;99.90
10986;DHT22;5546;48.714;8.738;2023-09-19T04:21:23;18.60;99.90
10986;DHT22;5546;48.714;8.738;2023-09-19T04:23:49;19.00;99.90
10986;DHT22;5546;48.714;8.738;2023-09-19T04:26:14;19.20;99.90
10986;DHT22;5546;48.714;8.738;2023-09-19T04:28:42;19.20;99.90
10986;DHT22;5546;48.714;8.738;2023-09-19T04:31:09;19.40;99.90
10986;DHT22;5546;48.714;8.738;2023-09-19T04:33:35;19.50;99.90
10986;DHT22;5546;48.714;8.738;2023-09-19T04:36:01;19.50;99.90
10986;DHT22;5546;48.714;8.738;2023-09-19T04:38:32;19.50;99.90
10986;DHT22;5546;48.714;8.738;2023-09-19T04:40:58;19.50;99.90
10986;DHT22;5546;48.714;8.738;2023-09-19T04:45:50;19.60;99.90
10986;DHT22;5546;48.714;8.738;2023-09-19T04:48:16;19.60;99.90
10986;DHT22;5546;48.714;8.738;2023-09-19T04:50:42;19.10;99.90
10986;DHT22;5546;48.714;8.738;2023-09-19T04:53:08;18.70;99.90
10986;DHT22;5546;48.714;8.738;2023-09-19T04:55:33;18.80;99.90
10986;DHT22;5546;48.714;8.738;2023-09-19T04:57:59;18.80;99.90
10986;DHT22;5546;48.714;8.738;2023-09-19T05:02:55;18.50;99.90
10986;DHT22;5546;48.714;8.738;2023-09-19T05:05:22;18.40;99.90
10986;DHT22;5546;48.714;8.738;2023-09-19T05:07:49;18.70;99.90
10986;DHT22;5546;48.714;8.738;2023-09-19T05:10:15;18.90;99.90
10986;DHT22;5546;48.714;8.738;2023-09-19T05:12:41;19.00;99.90
10986;DHT22;5546;48.714;8.738;2023-09-19T05:15:08;19.20;99.90
10986;DHT22;5546;48.714;8.738;2023-09-19T05:17:35;19.30;99.90
10986;DHT22;5546;48.714;8.738;2023-09-19T05:20:01;19.30;99.90
10986;DHT22;5546;48.714;8.738;2023-09-19T05:22:41;19.40;99.90
10986;DHT22;5546;48.714;8.738;2023-09-19T05:25:09;19.50;99.90
10986;DHT22;5546;48.714;8.738;2023-09-19T05:27:35;19.50;99.90
10986;DHT22;5546;48.714;8.738;2023-09-19T05:30:00;19.70;99.90
10986;DHT22;5546;48.714;8.738;2023-09-19T05:32:26;19.40;99.90
10986;DHT22;5546;48.714;8.738;2023-09-19T05:34:51;19.40;99.90
10986;DHT22;5546;48.714;8.738;2023-09-19T05:37:19;19.60;99.90
10986;DHT22;5546;48.714;8.738;2023-09-19T05:39:44;19.60;99.90
10986;DHT22;5546;48.714;8.738;2023-09-19T05:44:36;19.20;99.90
10986;DHT22;5546;48.714;8.738;2023-09-19T05:47:05;19.10;99.90
10986;DHT22;5546;48.714;8.738;2023-09-19T05:49:30;19.20;99.90
10986;DHT22;5546;48.714;8.738;2023-09-19T05:51:56;18.90;99.90
10986;DHT22;5546;48.714;8.738;2023-09-19T05:54:24;18.40;99.90
10986;DHT22;5546;48.714;8.738;2023-09-19T05:56:49;18.40;99.90
10986;DHT22;5546;48.714;8.738;2023-09-19T05:59:19;18.60;99.90
10986;DHT22;5546;48.714;8.738;2023-09-19T06:01:45;18.70;99.90
10986;DHT22;5546;48.714;8.738;2023-09-19T06:09:05;18.70;99.90
10986;DHT22;5546;48.714;8.738;2023-09-19T06:11:31;19.10;99.90
10986;DHT22;5546;48.714;8.738;2023-09-19T06:14:00;19.10;99.90
10986;DHT22;5546;48.714;8.738;2023-09-19T06:16:25;19.40;99.90
10986;DHT22;5546;48.714;8.738;2023-09-19T06:18:51;19.50;99.90
10986;DHT22;5546;48.714;8.738;2023-09-19T06:21:18;19.70;99.90
10986;DHT22;5546;48.714;8.738;2023-09-19T06:23:43;19.90;99.90
10986;DHT22;5546;48.714;8.738;2023-09-19T06:28:35;20.70;99.90
10986;DHT22;5546;48.714;8.738;2023-09-19T06:31:02;21.10;99.90
10986;DHT22;5546;48.714;8.738;2023-09-19T06:35:56;21.80;99.90
10986;DHT22;5546;48.714;8.738;2023-09-19T06:38:25;22.40;99.90
10986;DHT22;5546;48.714;8.738;2023-09-19T06:40:51;22.60;99.60
10986;DHT22;5546;48.714;8.738;2023-09-19T06:43:17;23.00;98.80
10986;DHT22;5546;48.714;8.738;2023-09-19T06:50:35;22.90;98.70
10986;DHT22;5546;48.714;8.738;2023-09-19T06:53:01;23.00;98.70
10986;DHT22;5546;48.714;8.738;2023-09-19T06:55:28;23.10;98.10
10986;DHT22;5546;48.714;8.738;2023-09-19T07:00:22;23.60;97.80
10986;DHT22;5546;48.714;8.738;2023-09-19T07:02:58;24.00;96.90
10986;DHT22;5546;48.714;8.738;2023-09-19T07:05:29;24.10;96.70
10986;DHT22;5546;48.714;8.738;2023-09-19T07:07:56;24.30;96.50
10986;DHT22;5546;48.714;8.738;2023-09-19T07:10:24;24.60;95.90
10986;DHT22;5546;48.714;8.738;2023-09-19T07:13:09;24.80;96.20
10986;DHT22;5546;48.714;8.738;2023-09-19T07:15:37;25.40;95.20
10986;DHT22;5546;48.714;8.738;2023-09-19T07:18:05;25.60;94.90
10986;DHT22;5546;48.714;8.738;2023-09-19T07:20:32;25.70;94.80
10986;DHT22;5546;48.714;8.738;2023-09-19T07:23:00;26.10;94.00
10986;DHT22;5546;48.714;8.738;2023-09-19T07:25:26;26.30;93.40
10986;DHT22;5546;48.714;8.738;2023-09-19T07:27:52;26.30;93.70
10986;DHT22;5546;48.714;8.738;2023-09-19T07:30:20;26.00;93.60
10986;DHT22;5546;48.714;8.738;2023-09-19T07:32:45;26.20;91.40
10986;DHT22;5546;48.714;8.738;2023-09-19T07:35:11;26.10;92.00
10986;DHT22;5546;48.714;8.738;2023-09-19T07:37:37;26.80;90.40
10986;DHT22;5546;48.714;8.738;2023-09-19T07:40:03;26.80;90.30
10986;DHT22;5546;48.714;8.738;2023-09-19T07:42:36;26.90;90.60
10986;DHT22;5546;48.714;8.738;2023-09-19T07:45:06;27.70;88.50
10986;DHT22;5546;48.714;8.738;2023-09-19T07:47:33;28.60;85.60
10986;DHT22;5546;48.714;8.738;2023-09-19T07:49:59;28.60;85.20
10986;DHT22;5546;48.714;8.738;2023-09-19T07:52:27;28.50;83.40
10986;DHT22;5546;48.714;8.738;2023-09-19T07:54:53;27.50;85.50
10986;DHT22;5546;48.714;8.738;2023-09-19T07:57:18;26.70;85.50
10986;DHT22;5546;48.714;8.738;2023-09-19T07:59:45;26.60;85.50
10986;DHT22;5546;48.714;8.738;2023-09-19T08:02:11;26.70;86.40
10986;DHT22;5546;48.714;8.738;2023-09-19T08:04:42;27.40;86.00
10986;DHT22;5546;48.714;8.738;2023-09-19T08:07:08;28.30;83.20
10986;DHT22;5546;48.714;8.738;2023-09-19T08:09:36;29.40;83.80
10986;DHT22;5546;48.714;8.738;2023-09-19T08:12:04;30.30;77.70
10986;DHT22;5546;48.714;8.738;2023-09-19T08:14:30;31.20;73.50
10986;DHT22;5546;48.714;8.738;2023-09-19T08:16:58;30.50;74.50
10986;DHT22;5546;48.714;8.738;2023-09-19T08:19:25;30.00;75.20
10986;DHT22;5546;48.714;8.738;2023-09-19T08:21:55;29.90;74.70
10986;DHT22;5546;48.714;8.738;2023-09-19T08:24:24;29.30;73.90
10986;DHT22;5546;48.714;8.738;2023-09-19T08:26:50;29.60;73.80
10986;DHT22;5546;48.714;8.738;2023-09-19T08:29:16;30.60;73.10
10986;DHT22;5546;48.714;8.738;2023-09-19T08:31:42;31.00;69.00
10986;DHT22;5546;48.714;8.738;2023-09-19T08:34:08;31.50;66.30
10986;DHT22;5546;48.714;8.738;2023-09-19T08:36:34;31.30;65.30
10986;DHT22;5546;48.714;8.738;2023-09-19T08:39:00;31.20;66.40
10986;DHT22;5546;48.714;8.738;2023-09-19T08:41:26;30.80;65.70
10986;DHT22;5546;48.714;8.738;2023-09-19T08:43:51;30.00;67.10
10986;DHT22;5546;48.714;8.738;2023-09-19T08:46:20;28.60;68.90
10986;DHT22;5546;48.714;8.738;2023-09-19T08:48:58;28.30;69.70
10986;DHT22;5546;48.714;8.738;2023-09-19T08:51:39;28.40;70.60
10986;DHT22;5546;48.714;8.738;2023-09-19T08:54:16;29.10;66.90
10986;DHT22;5546;48.714;8.738;2023-09-19T08:56:46;29.10;68.30
10986;DHT22;5546;48.714;8.738;2023-09-19T08:59:13;28.50;68.20
10986;DHT22;5546;48.714;8.738;2023-09-19T09:01:40;28.40;69.90
10986;DHT22;5546;48.714;8.738;2023-09-19T09:04:09;27.80;69.40
10986;DHT22;5546;48.714;8.738;2023-09-19T09:06:38;27.00;71.50
10986;DHT22;5546;48.714;8.738;2023-09-19T09:09:05;24.90;77.50
10986;DHT22;5546;48.714;8.738;2023-09-19T09:11:33;24.90;78.10
10986;DHT22;5546;48.714;8.738;2023-09-19T09:13:58;25.20;75.00
10986;DHT22;5546;48.714;8.738;2023-09-19T09:16:24;25.50;74.90
10986;DHT22;5546;48.714;8.738;2023-09-19T09:18:51;24.40;78.30
10986;DHT22;5546;48.714;8.738;2023-09-19T09:21:18;24.10;79.50
10986;DHT22;5546;48.714;8.738;2023-09-19T09:23:44;24.20;80.50
10986;DHT22;5546;48.714;8.738;2023-09-19T09:26:09;24.20;79.70
10986;DHT22;5546;48.714;8.738;2023-09-19T09:28:35;24.20;80.90
10986;DHT22;5546;48.714;8.738;2023-09-19T09:31:04;24.10;81.00
10986;DHT22;5546;48.714;8.738;2023-09-19T09:33:34;23.90;80.00
10986;DHT22;5546;48.714;8.738;2023-09-19T09:36:02;23.90;82.60
10986;DHT22;5546;48.714;8.738;2023-09-19T09:38:43;23.70;80.40
10986;DHT22;5546;48.714;8.738;2023-09-19T09:43:41;24.10;82.00
10986;DHT22;5546;48.714;8.738;2023-09-19T09:46:19;25.60;77.10
10986;DHT22;5546;48.714;8.738;2023-09-19T09:52:11;26.60;72.90
10986;DHT22;5546;48.714;8.738;2023-09-19T09:54:59;26.20;72.00
10986;DHT22;5546;48.714;8.738;2023-09-19T09:57:26;25.10;73.30
10986;DHT22;5546;48.714;8.738;2023-09-19T09:59:52;24.50;74.20
10986;DHT22;5546;48.714;8.738;2023-09-19T10:02:29;24.60;77.70
10986;DHT22;5546;48.714;8.738;2023-09-19T10:04:57;25.60;74.30
10986;DHT22;5546;48.714;8.738;2023-09-19T10:07:50;24.60;76.30
10986;DHT22;5546;48.714;8.738;2023-09-19T10:13:13;25.00;75.40
10986;DHT22;5546;48.714;8.738;2023-09-19T10:15:42;25.00;76.10
10986;DHT22;5546;48.714;8.738;2023-09-19T10:18:14;26.60;73.80
10986;DHT22;5546;48.714;8.738;2023-09-19T10:20:45;27.30;70.00
10986;DHT22;5546;48.714;8.738;2023-09-19T10:23:12;28.40;67.10
10986;DHT22;5546;48.714;8.738;2023-09-19T10:25:44;28.40;67.50
10986;DHT22;5546;48.714;8.738;2023-09-19T10:28:13;29.70;61.10
10986;DHT22;5546;48.714;8.738;2023-09-19T10:30:44;30.50;60.20
10986;DHT22;5546;48.714;8.738;2023-09-19T10:33:11;31.00;58.70
10986;DHT22;5546;48.714;8.738;2023-09-19T10:35:39;30.30;58.80
10986;DHT22;5546;48.714;8.738;2023-09-19T10:38:06;29.80;58.40
10986;DHT22;5546;48.714;8.738;2023-09-19T10:40:35;29.90;58.30
10986;DHT22;5546;48.714;8.738;2023-09-19T10:43:05;30.40;58.50
10986;DHT22;5546;48.714;8.738;2023-09-19T10:45:32;31.80;55.70
10986;DHT22;5546;48.714;8.738;2023-09-19T10:48:02;31.90;56.00
10986;DHT22;5546;48.714;8.738;2023-09-19T10:50:57;33.50;54.50
10986;DHT22;5546;48.714;8.738;2023-09-19T10:53:25;33.90;52.20
10986;DHT22;5546;48.714;8.738;2023-09-19T10:55:56;34.80;49.50
10986;DHT22;5546;48.714;8.738;2023-09-19T10:58:26;32.70;51.20
10986;DHT22;5546;48.714;8.738;2023-09-19T11:00:55;31.50;51.50
10986;DHT22;5546;48.714;8.738;2023-09-19T11:03:23;31.40;52.00
10986;DHT22;5546;48.714;8.738;2023-09-19T11:06:13;28.50;54.60
10986;DHT22;5546;48.714;8.738;2023-09-19T11:08:58;27.10;58.40
10986;DHT22;5546;48.714;8.738;2023-09-19T11:11:39;28.10;57.70
10986;DHT22;5546;48.714;8.738;2023-09-19T11:30:48;31.30;52.10
10986;DHT22;5546;48.714;8.738;2023-09-19T11:33:32;30.90;52.10
10986;DHT22;5546;48.714;8.738;2023-09-19T11:36:04;29.30;54.30
10986;DHT22;5546;48.714;8.738;2023-09-19T11:46:30;29.00;57.20
10986;DHT22;5546;48.714;8.738;2023-09-19T11:49:05;30.40;54.60
10986;DHT22;5546;48.714;8.738;2023-09-19T11:51:40;30.30;53.70
10986;DHT22;5546;48.714;8.738;2023-09-19T11:54:11;30.50;53.40
10986;DHT22;5546;48.714;8.738;2023-09-19T11:56:51;30.00;54.00
10986;DHT22;5546;48.714;8.738;2023-09-19T11:59:23;28.40;55.10
10986;DHT22;5546;48.714;8.738;2023-09-19T12:01:54;27.80;55.70
10986;DHT22;5546;48.714;8.738;2023-09-19T12:04:41;26.60;58.10
10986;DHT22;5546;48.714;8.738;2023-09-19T12:07:12;27.60;58.30
10986;DHT22;5546;48.714;8.738;2023-09-19T12:09:45;29.60;55.40
10986;DHT22;5546;48.714;8.738;2023-09-19T12:12:25;31.50;51.80
10986;DHT22;5546;48.714;8.738;2023-09-19T12:14:53;31.40;53.60
10986;DHT22;5546;48.714;8.738;2023-09-19T12:17:19;31.50;51.70
10986;DHT22;5546;48.714;8.738;2023-09-19T12:19:52;30.90;52.00
10986;DHT22;5546;48.714;8.738;2023-09-19T12:29:48;30.00;54.30
10986;DHT22;5546;48.714;8.738;2023-09-19T12:32:15;29.50;54.60
10986;DHT22;5546;48.714;8.738;2023-09-19T12:34:49;27.60;56.20
10986;DHT22;5546;48.714;8.738;2023-09-19T12:37:15;27.60;58.00
10986;DHT22;5546;48.714;8.738;2023-09-19T12:39:46;27.80;57.40
10986;DHT22;5546;48.714;8.738;2023-09-19T12:42:15;27.50;57.20
10986;DHT22;5546;48.714;8.738;2023-09-19T12:44:43;26.60;59.10
10986;DHT22;5546;48.714;8.738;2023-09-19T12:47:14;26.00;59.00
10986;DHT22;5546;48.714;8.738;2023-09-19T12:50:13;25.70;60.50
10986;DHT22;5546;48.714;8.738;2023-09-19T12:55:23;28.30;57.10
10986;DHT22;5546;48.714;8.738;2023-09-19T12:58:15;29.20;60.40
10986;DHT22;5546;48.714;8.738;2023-09-19T13:00:44;27.80;57.80
10986;DHT22;5546;48.714;8.738;2023-09-19T13:05:57;30.90;53.60
10986;DHT22;5546;48.714;8.738;2023-09-19T13:08:30;32.00;55.10
10986;DHT22;5546;48.714;8.738;2023-09-19T13:11:14;33.40;50.20
10986;DHT22;5546;48.714;8.738;2023-09-19T13:13:45;33.40;50.40
10986;DHT22;5546;48.714;8.738;2023-09-19T13:16:14;35.00;48.70
10986;DHT22;5546;48.714;8.738;2023-09-19T13:18:54;36.10;46.90
10986;DHT22;5546;48.714;8.738;2023-09-19T13:21:32;30.70;51.70
10986;DHT22;5546;48.714;8.738;2023-09-19T13:24:23;29.70;54.40
10986;DHT22;5546;48.714;8.738;2023-09-19T13:29:19;28.40;56.80
10986;DHT22;5546;48.714;8.738;2023-09-19T13:31:49;29.30;55.50
10986;DHT22;5546;48.714;8.738;2023-09-19T13:34:15;31.10;54.40
10986;DHT22;5546;48.714;8.738;2023-09-19T13:36:44;31.10;54.40
10986;DHT22;5546;48.714;8.738;2023-09-19T13:39:09;32.30;51.80
10986;DHT22;5546;48.714;8.738;2023-09-19T13:41:38;32.70;49.50
10986;DHT22;5546;48.714;8.738;2023-09-19T13:44:04;32.80;50.50
10986;DHT22;5546;48.714;8.738;2023-09-19T13:46:30;33.10;49.00
10986;DHT22;5546;48.714;8.738;2023-09-19T13:49:00;33.10;49.50
10986;DHT22;5546;48.714;8.738;2023-09-19T13:51:29;33.40;47.30
10986;DHT22;5546;48.714;8.738;2023-09-19T13:53:55;33.40;47.60
10986;DHT22;5546;48.714;8.738;2023-09-19T13:56:21;31.10;51.70
10986;DHT22;5546;48.714;8.738;2023-09-19T13:58:47;29.60;50.90
10986;DHT22;5546;48.714;8.738;2023-09-19T14:01:12;29.80;51.60
10986;DHT22;5546;48.714;8.738;2023-09-19T14:03:41;28.50;56.80
10986;DHT22;5546;48.714;8.738;2023-09-19T14:06:16;28.00;54.50
10986;DHT22;5546;48.714;8.738;2023-09-19T14:08:43;28.00;54.20
10986;DHT22;5546;48.714;8.738;2023-09-19T14:13:36;27.30;56.90
10986;DHT22;5546;48.714;8.738;2023-09-19T14:16:05;26.40;55.50
10986;DHT22;5546;48.714;8.738;2023-09-19T14:18:32;26.00;57.40
10986;DHT22;5546;48.714;8.738;2023-09-19T14:20:57;26.50;56.60
10986;DHT22;5546;48.714;8.738;2023-09-19T14:23:23;27.00;55.50
10986;DHT22;5546;48.714;8.738;2023-09-19T14:25:50;26.40;62.30
10986;DHT22;5546;48.714;8.738;2023-09-19T14:28:15;26.20;59.10
10986;DHT22;5546;48.714;8.738;2023-09-19T14:30:41;25.80;57.20
10986;DHT22;5546;48.714;8.738;2023-09-19T14:33:07;25.30;58.60
10986;DHT22;5546;48.714;8.738;2023-09-19T14:35:32;25.20;59.10
10986;DHT22;5546;48.714;8.738;2023-09-19T14:37:58;25.00;59.30
10986;DHT22;5546;48.714;8.738;2023-09-19T14:40:23;25.00;59.00
10986;DHT22;5546;48.714;8.738;2023-09-19T14:42:49;25.30;59.50
10986;DHT22;5546;48.714;8.738;2023-09-19T14:45:14;25.40;61.60
10986;DHT22;5546;48.714;8.738;2023-09-19T14:47:45;25.60;63.10
10986;DHT22;5546;48.714;8.738;2023-09-19T14:50:11;25.40;59.20
10986;DHT22;5546;48.714;8.738;2023-09-19T14:52:37;25.30;63.00
10986;DHT22;5546;48.714;8.738;2023-09-19T14:55:04;25.30;61.50
10986;DHT22;5546;48.714;8.738;2023-09-19T14:57:31;25.00;60.60
10986;DHT22;5546;48.714;8.738;2023-09-19T15:02:23;25.20;68.30
10986;DHT22;5546;48.714;8.738;2023-09-19T15:07:16;25.10;70.70
10986;DHT22;5546;48.714;8.738;2023-09-19T15:12:09;25.10;71.50
10986;DHT22;5546;48.714;8.738;2023-09-19T15:14:35;24.70;71.30
10986;DHT22;5546;48.714;8.738;2023-09-19T15:19:30;24.70;64.50
10986;DHT22;5546;48.714;8.738;2023-09-19T15:21:55;24.40;69.00
10986;DHT22;5546;48.714;8.738;2023-09-19T15:24:23;24.90;63.40
10986;DHT22;5546;48.714;8.738;2023-09-19T15:26:48;24.90;65.00
10986;DHT22;5546;48.714;8.738;2023-09-19T15:29:14;25.40;67.40
10986;DHT22;5546;48.714;8.738;2023-09-19T15:31:40;25.00;70.90
10986;DHT22;5546;48.714;8.738;2023-09-19T15:34:05;25.00;71.30
10986;DHT22;5546;48.714;8.738;2023-09-19T15:36:32;25.30;72.70
10986;DHT22;5546;48.714;8.738;2023-09-19T15:39:06;25.20;75.30
10986;DHT22;5546;48.714;8.738;2023-09-19T15:41:37;24.90;73.20
10986;DHT22;5546;48.714;8.738;2023-09-19T15:44:03;24.60;78.40
10986;DHT22;5546;48.714;8.738;2023-09-19T15:46:31;24.50;77.90
10986;DHT22;5546;48.714;8.738;2023-09-19T15:49:00;24.30;79.50
10986;DHT22;5546;48.714;8.738;2023-09-19T15:51:26;24.20;74.90
10986;DHT22;5546;48.714;8.738;2023-09-19T15:53:53;24.10;77.70
10986;DHT22;5546;48.714;8.738;2023-09-19T15:56:20;24.00;77.50
10986;DHT22;5546;48.714;8.738;2023-09-19T15:58:51;24.10;78.60
10986;DHT22;5546;48.714;8.738;2023-09-19T16:01:17;24.20;77.80
10986;DHT22;5546;48.714;8.738;2023-09-19T16:03:44;24.10;82.70
10986;DHT22;5546;48.714;8.738;2023-09-19T16:06:12;23.80;83.10
10986;DHT22;5546;48.714;8.738;2023-09-19T16:08:41;23.80;81.70
10986;DHT22;5546;48.714;8.738;2023-09-19T16:11:08;23.50;82.20
10986;DHT22;5546;48.714;8.738;2023-09-19T16:13:34;23.50;82.90
10986;DHT22;5546;48.714;8.738;2023-09-19T16:16:00;23.40;84.40
10986;DHT22;5546;48.714;8.738;2023-09-19T16:18:25;23.10;85.60
10986;DHT22;5546;48.714;8.738;2023-09-19T16:23:18;23.00;85.10
10986;DHT22;5546;48.714;8.738;2023-09-19T16:25:43;23.10;85.10
10986;DHT22;5546;48.714;8.738;2023-09-19T16:28:11;22.80;86.30
10986;DHT22;5546;48.714;8.738;2023-09-19T16:30:37;22.60;87.00
10986;DHT22;5546;48.714;8.738;2023-09-19T16:33:04;22.50;87.60
10986;DHT22;5546;48.714;8.738;2023-09-19T16:35:30;22.60;87.50
10986;DHT22;5546;48.714;8.738;2023-09-19T16:37:55;22.50;88.20
10986;DHT22;5546;48.714;8.738;2023-09-19T16:40:20;22.00;90.00
10986;DHT22;5546;48.714;8.738;2023-09-19T16:42:46;22.10;90.70
10986;DHT22;5546;48.714;8.738;2023-09-19T16:45:11;21.70;91.00
10986;DHT22;5546;48.714;8.738;2023-09-19T16:47:37;21.70;91.20
10986;DHT22;5546;48.714;8.738;2023-09-19T16:50:03;21.70;90.90
10986;DHT22;5546;48.714;8.738;2023-09-19T16:52:31;21.70;91.40
10986;DHT22;5546;48.714;8.738;2023-09-19T16:54:56;21.30;91.40
10986;DHT22;5546;48.714;8.738;2023-09-19T16:59:51;21.20;92.20
10986;DHT22;5546;48.714;8.738;2023-09-19T17:04:42;20.80;93.80
10986;DHT22;5546;48.714;8.738;2023-09-19T17:07:08;20.80;93.80
10986;DHT22;5546;48.714;8.738;2023-09-19T17:09:35;20.60;93.50
10986;DHT22;5546;48.714;8.738;2023-09-19T17:12:00;20.60;94.00
10986;DHT22;5546;48.714;8.738;2023-09-19T17:14:28;20.60;94.00
10986;DHT22;5546;48.714;8.738;2023-09-19T17:16:55;20.30;94.40
10986;DHT22;5546;48.714;8.738;2023-09-19T17:19:20;20.60;93.90
10986;DHT22;5546;48.714;8.738;2023-09-19T17:21:48;20.40;94.10
10986;DHT22;5546;48.714;8.738;2023-09-19T17:24:13;20.50;93.70
10986;DHT22;5546;48.714;8.738;2023-09-19T17:26:39;20.40;94.20
10986;DHT22;5546;48.714;8.738;2023-09-19T17:29:05;20.30;94.10
10986;DHT22;5546;48.714;8.738;2023-09-19T17:31:32;20.20;94.50
10986;DHT22;5546;48.714;8.738;2023-09-19T17:33:57;20.20;94.80
10986;DHT22;5546;48.714;8.738;2023-09-19T17:36:25;20.40;94.40
10986;DHT22;5546;48.714;8.738;2023-09-19T17:38:53;20.40;94.50
10986;DHT22;5546;48.714;8.738;2023-09-19T17:41:18;20.50;94.10